Time;durP1;ratioP1;P1;durP2;ratioP2;P2;SDS_P1;SDS_P2;PMS_P1;PMS_P2;Temp;Humidity;BMP_temperature;BMP_pressure;BME280_temperature;BME280_humidity;BME280_pressure;Samples;Min_cycle;Max_cycle;Signal;HPM_P1;HPM_P2
2023/09/23 00:01:39;;;;;;;5.70;4.47;;;;;;;;;;5015118;28;20065;-71
2023/09/23 00:04:06;;;;;;;6.18;3.97;;;;;;;;;;5015012;28;20046;-71
2023/09/23 00:06:32;;;;;;;4.40;4.00;;;;;;;;;;5014876;28;20053;-71
2023/09/23 00:08:58;;;;;;;5.25;3.72;;;;;;;;;;5015441;28;20042;-71
2023/09/23 00:11:24;;;;;;;7.28;4.13;;;;;;;;;;5015488;28;20034;-71
2023/09/23 00:13:50;;;;;;;4.35;3.92;;;;;;;;;;5014592;28;20050;-71
2023/09/23 00:16:16;;;;;;;4.07;3.47;;;;;;;;;;5013187;28;20511;-71
2023/09/23 00:18:45;;;;;;;4.10;3.70;;;;;;;;;;5015783;28;20037;-71
2023/09/23 00:21:14;;;;;;;4.68;4.03;;;;;;;;;;5015195;28;20040;-71
2023/09/23 00:23:40;;;;;;;4.35;3.90;;;;;;;;;;5015044;28;20099;-71
2023/09/23 00:26:11;;;;;;;4.57;4.07;;;;;;;;;;5014341;28;20045;-71
2023/09/23 00:28:37;;;;;;;;;;;;;;;;;;5015073;28;20107;-71
2023/09/23 00:31:05;;;;;;;5.38;4.40;;;;;;;;;;5013820;28;20320;-71
2023/09/23 00:33:31;;;;;;;4.22;3.55;;;;;;;;;;5010694;28;20063;-71
2023/09/23 00:35:57;;;;;;;4.30;3.42;;;;;;;;;;5010799;28;20042;-71
2023/09/23 00:38:23;;;;;;;4.72;3.78;;;;;;;;;;5011006;28;20035;-71
2023/09/23 00:40:49;;;;;;;7.22;3.45;;;;;;;;;;5008957;28;20044;-71
2023/09/23 00:43:17;;;;;;;5.07;3.17;;;;;;;;;;5014321;28;20050;-71
2023/09/23 00:45:51;;;;;;;4.20;3.35;;;;;;;;;;5013896;28;20041;-71
2023/09/23 00:48:23;;;;;;;5.32;3.60;;;;;;;;;;5014121;28;20100;-71
2023/09/23 00:50:50;;;;;;;4.82;3.30;;;;;;;;;;5013955;28;20037;-71
2023/09/23 00:53:17;;;;;;;4.10;3.70;;;;;;;;;;5014119;28;20089;-71
2023/09/23 00:55:51;;;;;;;5.53;3.95;;;;;;;;;;5013706;28;20042;-71
2023/09/23 00:58:20;;;;;;;5.18;4.32;;;;;;;;;;5014098;28;20065;-71
2023/09/23 01:00:46;;;;;;;5.45;4.40;;;;;;;;;;5013751;28;20451;-71
2023/09/23 01:03:13;;;;;;;4.72;4.15;;;;;;;;;;5013364;28;20068;-71
2023/09/23 01:05:43;;;;;;;5.28;4.63;;;;;;;;;;5014067;28;20124;-71
2023/09/23 01:08:20;;;;;;;5.57;4.97;;;;;;;;;;5013474;28;20037;-71
2023/09/23 01:10:48;;;;;;;5.18;4.68;;;;;;;;;;5013929;28;20041;-71
2023/09/23 01:13:14;;;;;;;4.90;4.40;;;;;;;;;;5013389;28;20046;-71
2023/09/23 01:15:40;;;;;;;6.18;5.00;;;;;;;;;;5013835;28;20095;-71
2023/09/23 01:18:07;;;;;;;8.15;4.88;;;;;;;;;;5013332;28;20553;-71
2023/09/23 01:20:33;;;;;;;6.13;4.57;;;;;;;;;;5013113;28;20057;-71
2023/09/23 01:22:59;;;;;;;4.40;3.97;;;;;;;;;;5013554;28;20484;-71
2023/09/23 01:25:25;;;;;;;6.07;3.60;;;;;;;;;;5013760;28;20049;-71
2023/09/23 01:27:52;;;;;;;4.85;3.70;;;;;;;;;;5013453;28;20492;-71
2023/09/23 01:30:21;;;;;;;3.78;2.75;;;;;;;;;;5013570;28;20676;-71
2023/09/23 01:32:51;;;;;;;5.68;2.90;;;;;;;;;;5013479;28;20060;-71
2023/09/23 01:35:20;;;;;;;3.28;2.92;;;;;;;;;;5013250;28;20042;-71
2023/09/23 01:37:46;;;;;;;3.40;2.25;;;;;;;;;;5012738;28;20518;-71
2023/09/23 01:40:18;;;;;;;3.22;2.45;;;;;;;;;;5013449;28;20104;-71
2023/09/23 01:42:46;;;;;;;3.67;2.50;;;;;;;;;;5013094;28;20088;-71
2023/09/23 01:45:13;;;;;;;6.05;2.53;;;;;;;;;;5013277;28;20038;-71
2023/09/23 01:47:39;;;;;;;3.85;2.72;;;;;;;;;;5012572;28;20046;-71
2023/09/23 01:50:06;;;;;;;3.80;2.55;;;;;;;;;;5013521;28;20100;-71
2023/09/23 01:52:32;;;;;;;3.80;2.97;;;;;;;;;;5012585;28;20073;-71
2023/09/23 01:54:58;;;;;;;3.95;2.45;;;;;;;;;;5013273;28;20049;-71
2023/09/23 01:57:24;;;;;;;4.50;2.97;;;;;;;;;;5012450;28;20129;-71
2023/09/23 01:59:50;;;;;;;4.20;3.03;;;;;;;;;;5013209;28;20117;-71
2023/09/23 02:02:17;;;;;;;5.35;3.40;;;;;;;;;;5003134;28;20041;-71
2023/09/23 02:04:43;;;;;;;6.45;3.80;;;;;;;;;;5012082;28;20073;-71
2023/09/23 02:07:10;;;;;;;4.95;4.00;;;;;;;;;;5011453;28;20069;-70
2023/09/23 02:09:40;;;;;;;4.20;3.80;;;;;;;;;;5012027;28;20107;-71
2023/09/23 02:12:06;;;;;;;4.80;4.13;;;;;;;;;;5012380;28;20042;-71
2023/09/23 02:14:32;;;;;;;6.97;4.75;;;;;;;;;;5011993;28;20084;-71
2023/09/23 02:16:58;;;;;;;4.95;4.00;;;;;;;;;;5021946;23;20047;-69
2023/09/23 02:19:25;;;;;;;6.63;4.53;;;;;;;;;;4997890;28;20543;-69
2023/09/23 02:21:51;;;;;;;5.20;4.50;;;;;;;;;;4992839;28;20369;-69
2023/09/23 02:24:20;;;;;;;4.70;3.80;;;;;;;;;;4992838;28;20042;-69
2023/09/23 02:26:46;;;;;;;6.80;4.50;;;;;;;;;;4992009;28;20034;-69
2023/09/23 02:29:16;;;;;;;6.07;4.22;;;;;;;;;;4993389;28;20121;-69
2023/09/23 02:31:46;;;;;;;5.43;4.40;;;;;;;;;;4993166;28;20408;-69
2023/09/23 02:34:16;;;;;;;6.10;4.18;;;;;;;;;;4992889;28;20372;-69
2023/09/23 02:36:43;;;;;;;4.95;4.25;;;;;;;;;;4992195;28;20069;-69
2023/09/23 02:39:15;;;;;;;5.38;4.43;;;;;;;;;;4992701;28;20382;-69
2023/09/23 02:41:41;;;;;;;6.05;4.30;;;;;;;;;;4992965;28;20046;-69
2023/09/23 02:44:07;;;;;;;4.57;4.15;;;;;;;;;;4992278;28;20048;-69
2023/09/23 02:46:34;;;;;;;6.30;3.97;;;;;;;;;;4996294;28;20044;-69
2023/09/23 02:48:59;;;;;;;5.55;4.47;;;;;;;;;;4981570;28;20085;-69
2023/09/23 02:51:26;;;;;;;5.75;4.13;;;;;;;;;;4973393;28;20046;-69
2023/09/23 02:53:52;;;;;;;5.57;3.97;;;;;;;;;;4973320;28;20532;-69
2023/09/23 02:56:18;;;;;;;6.22;4.15;;;;;;;;;;4972973;28;20035;-69
2023/09/23 02:58:44;;;;;;;6.10;4.15;;;;;;;;;;4986086;28;20081;-69
2023/09/23 03:01:14;;;;;;;5.38;3.90;;;;;;;;;;4999891;28;20084;-69
2023/09/23 03:03:40;;;;;;;5.15;4.18;;;;;;;;;;4977698;28;20054;-69
2023/09/23 03:06:10;;;;;;;4.80;3.80;;;;;;;;;;4991348;28;20057;-69
2023/09/23 03:08:37;;;;;;;5.30;3.65;;;;;;;;;;4991999;28;20046;-68
2023/09/23 03:11:08;;;;;;;5.00;4.03;;;;;;;;;;4992376;28;20057;-68
2023/09/23 03:13:36;;;;;;;;;;;;;;;;;;4992855;28;20038;-68
2023/09/23 03:16:10;;;;;;;5.68;4.32;;;;;;;;;;4991487;28;20263;-68
2023/09/23 03:18:54;;;;;;;5.65;4.57;;;;;;;;;;4992079;28;20122;-68
2023/09/23 03:21:20;;;;;;;5.97;4.30;;;;;;;;;;4992337;28;20120;-68
2023/09/23 03:23:46;;;;;;;7.63;5.03;;;;;;;;;;4992706;28;20121;-68
2023/09/23 03:26:14;;;;;;;6.50;4.78;;;;;;;;;;4995327;28;20451;-68
2023/09/23 03:28:40;;;;;;;6.90;5.20;;;;;;;;;;4995890;28;20035;-68
2023/09/23 03:31:10;;;;;;;6.40;5.18;;;;;;;;;;4996331;28;20074;-68
2023/09/23 03:33:37;;;;;;;8.25;5.60;;;;;;;;;;4995538;28;20042;-68
2023/09/23 03:36:03;;;;;;;7.47;5.50;;;;;;;;;;4995965;28;20138;-68
2023/09/23 03:38:29;;;;;;;8.98;6.05;;;;;;;;;;4995564;28;20038;-68
2023/09/23 03:41:02;;;;;;;7.28;5.40;;;;;;;;;;4996240;28;20046;-68
2023/09/23 03:43:29;;;;;;;7.88;5.90;;;;;;;;;;4992836;28;20538;-68
2023/09/23 03:45:56;;;;;;;8.13;6.18;;;;;;;;;;4982863;28;20602;-68
2023/09/23 03:48:22;;;;;;;8.57;6.32;;;;;;;;;;4995482;28;20070;-68
2023/09/23 03:50:52;;;;;;;10.52;7.30;;;;;;;;;;4998319;28;20038;-68
2023/09/23 03:53:21;;;;;;;9.75;7.03;;;;;;;;;;4976156;28;20062;-68
2023/09/23 03:55:47;;;;;;;8.88;6.63;;;;;;;;;;4976319;28;20440;-68
2023/09/23 03:58:13;;;;;;;10.18;7.47;;;;;;;;;;4975921;28;20039;-68
2023/09/23 04:00:39;;;;;;;9.35;7.07;;;;;;;;;;4978755;28;20301;-68
2023/09/23 04:03:05;;;;;;;8.80;7.25;;;;;;;;;;4990568;28;20042;-68
2023/09/23 04:05:31;;;;;;;10.63;7.95;;;;;;;;;;4975313;28;20540;-68
2023/09/23 04:07:58;;;;;;;11.30;8.60;;;;;;;;;;4989252;28;20042;-68
2023/09/23 04:10:24;;;;;;;10.52;7.65;;;;;;;;;;4995636;28;20069;-68
2023/09/23 04:12:51;;;;;;;11.07;7.97;;;;;;;;;;4995456;28;20053;-68
2023/09/23 04:15:19;;;;;;;10.85;8.30;;;;;;;;;;4995873;28;20041;-68
2023/09/23 04:17:45;;;;;;;10.68;8.48;;;;;;;;;;4988545;28;20042;-68
2023/09/23 04:20:14;;;;;;;10.25;8.00;;;;;;;;;;4975608;28;20556;-68
2023/09/23 04:22:41;;;;;;;12.48;8.82;;;;;;;;;;4975271;28;20046;-68
2023/09/23 04:25:08;;;;;;;10.77;8.35;;;;;;;;;;4975585;28;20389;-68
2023/09/23 04:27:36;;;;;;;12.77;8.93;;;;;;;;;;4998260;28;20049;-68
2023/09/23 04:30:04;;;;;;;13.55;8.52;;;;;;;;;;4984410;28;20070;-68
2023/09/23 04:32:30;;;;;;;11.48;8.63;;;;;;;;;;4980699;28;20140;-68
2023/09/23 04:34:56;;;;;;;10.63;8.60;;;;;;;;;;4994780;28;20081;-68
2023/09/23 04:37:23;;;;;;;14.23;8.88;;;;;;;;;;4993946;28;20049;-68
2023/09/23 04:39:50;;;;;;;12.48;8.75;;;;;;;;;;4994320;28;20516;-68
2023/09/23 04:42:17;;;;;;;12.00;8.48;;;;;;;;;;4994996;28;20049;-68
2023/09/23 04:44:43;;;;;;;12.50;8.77;;;;;;;;;;4994556;28;20046;-68
2023/09/23 04:47:09;;;;;;;12.68;9.13;;;;;;;;;;4994782;28;20127;-68
2023/09/23 04:49:35;;;;;;;12.60;8.57;;;;;;;;;;4993930;28;20528;-69
2023/09/23 04:52:01;;;;;;;12.15;8.38;;;;;;;;;;4994965;28;20085;-69
2023/09/23 04:54:27;;;;;;;15.18;9.48;;;;;;;;;;4994679;28;20050;-69
2023/09/23 04:56:53;;;;;;;14.77;10.07;;;;;;;;;;4993583;28;20407;-68
2023/09/23 04:59:19;;;;;;;13.32;9.02;;;;;;;;;;4994076;28;20038;-68
2023/09/23 05:01:45;;;;;;;13.52;9.18;;;;;;;;;;4994915;28;20035;-68
2023/09/23 05:04:11;;;;;;;13.30;8.95;;;;;;;;;;4994628;28;20531;-68
2023/09/23 05:06:37;;;;;;;12.48;8.98;;;;;;;;;;4993925;28;20456;-68
2023/09/23 05:09:03;;;;;;;15.57;11.30;;;;;;;;;;4994186;28;20041;-68
2023/09/23 05:11:29;;;;;;;18.35;11.63;;;;;;;;;;4994530;28;20057;-68
2023/09/23 05:13:55;;;;;;;17.50;11.00;;;;;;;;;;4999319;28;20049;-68
2023/09/23 05:16:22;;;;;;;21.42;12.68;;;;;;;;;;4979870;28;20039;-68
2023/09/23 05:18:49;;;;;;;22.88;14.10;;;;;;;;;;4994004;28;20105;-68
2023/09/23 05:21:18;;;;;;;21.42;14.23;;;;;;;;;;4993376;28;20104;-68
2023/09/23 05:23:47;;;;;;;23.30;14.48;;;;;;;;;;4987065;28;20050;-68
2023/09/23 05:26:13;;;;;;;24.55;15.15;;;;;;;;;;4993916;28;20042;-68
2023/09/23 05:28:39;;;;;;;22.10;14.65;;;;;;;;;;4993372;28;20049;-68
2023/09/23 05:31:05;;;;;;;24.38;15.77;;;;;;;;;;4993873;28;20129;-68
2023/09/23 05:33:31;;;;;;;26.10;16.70;;;;;;;;;;4993788;28;20042;-68
2023/09/23 05:35:57;;;;;;;27.25;16.75;;;;;;;;;;4993718;28;20400;-68
2023/09/23 05:38:23;;;;;;;29.48;18.13;;;;;;;;;;4993597;28;20077;-69
2023/09/23 05:40:52;;;;;;;27.08;16.98;;;;;;;;;;4993862;28;20038;-69
2023/09/23 05:43:18;;;;;;;32.53;18.80;;;;;;;;;;4993899;28;20050;-69
2023/09/23 05:45:44;;;;;;;30.17;18.17;;;;;;;;;;4993873;28;20038;-69
2023/09/23 05:48:10;;;;;;;28.27;18.33;;;;;;;;;;4993904;28;20070;-69
2023/09/23 05:50:36;;;;;;;29.88;18.42;;;;;;;;;;4993393;28;20066;-69
2023/09/23 05:53:02;;;;;;;29.33;18.63;;;;;;;;;;4993682;28;20077;-69
2023/09/23 05:55:31;;;;;;;31.52;19.38;;;;;;;;;;4990857;28;20044;-68
2023/09/23 05:57:57;;;;;;;30.73;19.13;;;;;;;;;;4986634;28;20052;-68
2023/09/23 06:00:25;;;;;;;29.42;19.00;;;;;;;;;;4993360;28;20053;-68
2023/09/23 06:02:51;;;;;;;30.13;19.40;;;;;;;;;;4993137;28;20532;-68
2023/09/23 06:05:18;;;;;;;30.67;19.65;;;;;;;;;;4993018;28;20073;-68
2023/09/23 06:07:45;;;;;;;32.95;19.75;;;;;;;;;;4993075;28;20042;-68
2023/09/23 06:10:11;;;;;;;30.60;20.48;;;;;;;;;;4993197;28;20034;-68
2023/09/23 06:12:37;;;;;;;33.55;20.08;;;;;;;;;;4993073;28;20038;-68
2023/09/23 06:15:05;;;;;;;29.60;20.58;;;;;;;;;;4993024;28;20042;-68
2023/09/23 06:17:32;;;;;;;34.05;21.05;;;;;;;;;;4992621;28;20080;-68
2023/09/23 06:19:59;;;;;;;33.60;20.10;;;;;;;;;;4992847;28;20038;-68
2023/09/23 06:22:26;;;;;;;36.55;20.67;;;;;;;;;;4993107;28;20069;-68
2023/09/23 06:24:52;;;;;;;36.70;21.63;;;;;;;;;;4991617;28;20054;-68
2023/09/23 06:27:19;;;;;;;36.08;20.40;;;;;;;;;;4992953;28;20038;-68
2023/09/23 06:29:45;;;;;;;35.97;21.17;;;;;;;;;;4992515;28;20041;-68
2023/09/23 06:32:12;;;;;;;31.00;21.00;;;;;;;;;;4993022;28;20045;-68
2023/09/23 06:34:38;;;;;;;33.25;20.52;;;;;;;;;;4992506;28;20159;-68
2023/09/23 06:37:04;;;;;;;33.53;20.15;;;;;;;;;;4992507;28;20035;-69
2023/09/23 06:39:30;;;;;;;37.20;22.00;;;;;;;;;;4992344;28;20128;-69
2023/09/23 06:41:56;;;;;;;31.95;19.92;;;;;;;;;;4993104;28;20066;-69
2023/09/23 06:44:22;;;;;;;33.65;20.23;;;;;;;;;;4990911;28;20046;-69
2023/09/23 06:46:49;;;;;;;32.45;20.80;;;;;;;;;;4992426;28;20111;-69
2023/09/23 06:49:16;;;;;;;31.55;19.75;;;;;;;;;;4992372;28;20097;-69
2023/09/23 06:51:42;;;;;;;35.28;20.10;;;;;;;;;;4992510;28;20500;-68
2023/09/23 06:54:07;;;;;;;32.03;20.00;;;;;;;;;;4992045;28;20084;-68
2023/09/23 06:56:37;;;;;;;32.75;20.63;;;;;;;;;;4989713;28;20034;-68
2023/09/23 06:59:03;;;;;;;35.42;20.52;;;;;;;;;;4988771;28;20066;-68
2023/09/23 07:01:29;;;;;;;32.60;19.83;;;;;;;;;;4999192;28;20194;-68
2023/09/23 07:03:55;;;;;;;32.55;20.98;;;;;;;;;;4998774;28;20149;-68
2023/09/23 07:06:21;;;;;;;33.28;19.45;;;;;;;;;;4998326;28;20138;-68
2023/09/23 07:08:47;;;;;;;31.33;19.20;;;;;;;;;;4999344;28;20100;-68
2023/09/23 07:11:14;;;;;;;32.53;19.52;;;;;;;;;;4998973;28;20093;-69
2023/09/23 07:13:40;;;;;;;34.65;20.77;;;;;;;;;;4999125;28;20042;-69
2023/09/23 07:16:06;;;;;;;34.17;19.95;;;;;;;;;;4998535;28;20070;-69
2023/09/23 07:18:33;;;;;;;34.47;18.45;;;;;;;;;;5000514;28;20181;-69
2023/09/23 07:20:59;;;;;;;35.10;21.27;;;;;;;;;;4990111;28;20034;-69
2023/09/23 07:23:25;;;;;;;29.48;18.70;;;;;;;;;;4979674;28;20392;-69
2023/09/23 07:25:52;;;;;;;33.40;19.95;;;;;;;;;;4979462;28;20042;-69
2023/09/23 07:28:18;;;;;;;30.95;18.98;;;;;;;;;;4978829;28;20536;-69
2023/09/23 07:30:44;;;;;;;33.90;19.83;;;;;;;;;;4979248;28;20034;-69
2023/09/23 07:33:10;;;;;;;27.55;17.88;;;;;;;;;;4990212;28;20042;-69
2023/09/23 07:35:36;;;;;;;29.48;18.92;;;;;;;;;;4998654;28;20049;-69
2023/09/23 07:38:02;;;;;;;28.02;18.05;;;;;;;;;;4998777;28;20472;-69
2023/09/23 07:40:29;;;;;;;32.22;19.88;;;;;;;;;;4998994;28;20038;-69
2023/09/23 07:42:55;;;;;;;31.67;19.08;;;;;;;;;;4998582;28;20038;-69
2023/09/23 07:45:21;;;;;;;28.60;17.75;;;;;;;;;;4998274;28;20699;-69
2023/09/23 07:47:48;;;;;;;27.67;17.40;;;;;;;;;;4998567;28;20073;-69
2023/09/23 07:50:14;;;;;;;32.40;18.27;;;;;;;;;;4998571;28;20081;-68
2023/09/23 07:52:40;;;;;;;27.83;17.52;;;;;;;;;;4998264;28;20058;-68
2023/09/23 07:55:06;;;;;;;27.27;17.33;;;;;;;;;;4998448;28;20404;-68
2023/09/23 07:57:32;;;;;;;26.20;16.55;;;;;;;;;;4998423;28;20034;-68
2023/09/23 07:59:59;;;;;;;26.88;16.67;;;;;;;;;;5003821;28;20072;-68
2023/09/23 08:02:25;;;;;;;28.02;16.58;;;;;;;;;;4982567;28;20053;-68
2023/09/23 08:04:51;;;;;;;24.73;16.25;;;;;;;;;;4979101;28;20460;-68
2023/09/23 08:07:17;;;;;;;24.20;15.52;;;;;;;;;;4979025;28;20043;-68
2023/09/23 08:09:43;;;;;;;27.80;17.85;;;;;;;;;;4979245;28;20035;-68
2023/09/23 08:12:09;;;;;;;26.38;17.17;;;;;;;;;;4975603;28;20161;-68
2023/09/23 08:14:35;;;;;;;23.80;16.70;;;;;;;;;;4975676;28;20090;-68
2023/09/23 08:17:01;;;;;;;24.15;15.75;;;;;;;;;;4981822;28;20034;-68
2023/09/23 08:19:27;;;;;;;25.45;17.27;;;;;;;;;;4995333;28;20377;-68
2023/09/23 08:21:54;;;;;;;22.95;15.18;;;;;;;;;;4995674;28;20499;-68
2023/09/23 08:24:20;;;;;;;25.23;16.20;;;;;;;;;;4995380;28;20060;-68
2023/09/23 08:26:46;;;;;;;25.35;15.40;;;;;;;;;;4994596;28;20667;-68
2023/09/23 08:29:14;;;;;;;24.17;16.25;;;;;;;;;;4995392;28;20034;-68
2023/09/23 08:31:40;;;;;;;22.73;14.43;;;;;;;;;;4994670;28;20050;-68
2023/09/23 08:34:09;;;;;;;24.42;15.13;;;;;;;;;;4994561;28;20076;-68
2023/09/23 08:36:35;;;;;;;21.85;15.10;;;;;;;;;;4994612;28;20046;-68
2023/09/23 08:39:07;;;;;;;22.42;15.10;;;;;;;;;;4995009;28;20034;-68
2023/09/23 08:41:34;;;;;;;22.42;14.65;;;;;;;;;;4994542;28;20042;-68
2023/09/23 08:44:03;;;;;;;21.88;15.60;;;;;;;;;;4995014;28;20064;-68
2023/09/23 08:46:30;;;;;;;20.75;14.50;;;;;;;;;;4994038;28;20042;-68
2023/09/23 08:48:56;;;;;;;20.13;14.27;;;;;;;;;;4995066;28;20078;-68
2023/09/23 08:51:24;;;;;;;21.33;13.63;;;;;;;;;;4993896;28;20069;-68
2023/09/23 08:53:51;;;;;;;22.85;14.70;;;;;;;;;;4993540;28;20042;-68
2023/09/23 08:56:17;;;;;;;19.30;13.70;;;;;;;;;;4994729;28;20097;-68
2023/09/23 08:58:44;;;;;;;19.00;13.05;;;;;;;;;;4993867;28;20330;-68
2023/09/23 09:01:10;;;;;;;19.33;13.27;;;;;;;;;;4994324;28;20575;-68
2023/09/23 09:03:37;;;;;;;17.60;13.65;;;;;;;;;;4994807;28;20053;-68
2023/09/23 09:06:03;;;;;;;17.77;12.63;;;;;;;;;;4994144;28;20081;-68
2023/09/23 09:08:32;;;;;;;18.17;12.95;;;;;;;;;;5000932;28;20073;-68
2023/09/23 09:10:59;;;;;;;18.23;13.38;;;;;;;;;;4974697;28;20034;-68
2023/09/23 09:13:25;;;;;;;15.75;12.60;;;;;;;;;;4974820;28;20043;-68
2023/09/23 09:15:51;;;;;;;19.27;13.38;;;;;;;;;;4977240;28;20192;-68
2023/09/23 09:18:17;;;;;;;16.98;12.02;;;;;;;;;;4993910;28;20041;-68
2023/09/23 09:20:43;;;;;;;15.13;12.30;;;;;;;;;;4994409;28;20396;-68
2023/09/23 09:23:15;;;;;;;14.18;11.60;;;;;;;;;;4993568;28;20045;-68
2023/09/23 09:25:47;;;;;;;14.10;10.52;;;;;;;;;;4994145;28;20057;-68
2023/09/23 09:28:13;;;;;;;13.32;10.48;;;;;;;;;;4993728;28;20054;-68
2023/09/23 09:30:39;;;;;;;14.15;11.20;;;;;;;;;;4994160;28;20049;-68
2023/09/23 09:33:08;;;;;;;12.93;10.43;;;;;;;;;;4993601;28;20034;-68
2023/09/23 09:35:34;;;;;;;12.90;11.18;;;;;;;;;;4994010;28;20038;-68
2023/09/23 09:38:04;;;;;;;14.88;11.20;;;;;;;;;;4993349;28;20380;-68
2023/09/23 09:40:30;;;;;;;17.10;11.65;;;;;;;;;;4993288;28;20503;-68
2023/09/23 09:42:59;;;;;;;16.15;11.00;;;;;;;;;;4993733;28;20038;-68
2023/09/23 09:45:26;;;;;;;13.38;11.43;;;;;;;;;;4992609;28;20050;-68
2023/09/23 09:47:53;;;;;;;17.70;10.95;;;;;;;;;;4993466;28;20489;-68
2023/09/23 09:50:19;;;;;;;15.43;10.48;;;;;;;;;;4993338;28;20523;-68
2023/09/23 09:52:46;;;;;;;12.02;10.00;;;;;;;;;;4993275;28;20073;-68
2023/09/23 09:55:17;;;;;;;14.48;10.63;;;;;;;;;;4993462;28;20505;-68
2023/09/23 09:57:43;;;;;;;12.75;10.20;;;;;;;;;;4992758;28;20073;-68
2023/09/23 10:00:54;;;;;;;13.00;9.27;;;;;;;;;;4993565;28;20066;-68
2023/09/23 10:03:02;;;;;;;12.05;9.30;;;;;;;;;;4992500;28;20046;-68
2023/09/23 10:05:31;;;;;;;12.07;9.70;;;;;;;;;;4993612;28;20030;-68
2023/09/23 10:07:57;;;;;;;13.23;8.52;;;;;;;;;;4986526;28;20039;-68
2023/09/23 10:10:36;;;;;;;12.00;8.50;;;;;;;;;;4974064;28;20053;-68
2023/09/23 10:13:16;;;;;;;11.25;8.82;;;;;;;;;;4992796;28;20042;-68
2023/09/23 10:15:43;;;;;;;11.37;8.13;;;;;;;;;;4992998;28;20053;-68
2023/09/23 10:18:13;;;;;;;9.00;7.18;;;;;;;;;;4992481;28;20038;-68
2023/09/23 10:20:50;;;;;;;12.30;7.90;;;;;;;;;;4993369;28;20042;-68
2023/09/23 10:23:20;;;;;;;13.40;7.57;;;;;;;;;;4992829;28;20081;-68
2023/09/23 10:25:48;;;;;;;9.47;6.50;;;;;;;;;;4993198;28;20400;-68
2023/09/23 10:28:23;;;;;;;8.82;5.93;;;;;;;;;;4992388;28;20041;-68
2023/09/23 10:31:03;;;;;;;12.13;6.32;;;;;;;;;;4992487;28;20133;-68
2023/09/23 10:33:30;;;;;;;9.52;5.85;;;;;;;;;;4992640;28;20078;-68
2023/09/23 10:35:57;;;;;;;9.55;5.30;;;;;;;;;;4992331;28;20039;-68
2023/09/23 10:38:27;;;;;;;7.95;5.00;;;;;;;;;;4992703;28;20117;-67
2023/09/23 10:40:54;;;;;;;10.57;5.40;;;;;;;;;;4992497;28;20069;-67
2023/09/23 10:43:21;;;;;;;10.90;5.40;;;;;;;;;;4992880;28;20038;-67
2023/09/23 10:45:48;;;;;;;5.45;4.88;;;;;;;;;;4992913;28;20046;-67
2023/09/23 10:48:15;;;;;;;5.70;4.50;;;;;;;;;;4991649;28;20507;-67
2023/09/23 10:50:41;;;;;;;7.72;4.10;;;;;;;;;;4992789;28;20038;-67
2023/09/23 10:53:08;;;;;;;7.15;4.05;;;;;;;;;;4992753;28;20042;-67
2023/09/23 10:55:34;;;;;;;6.88;4.43;;;;;;;;;;4998951;28;20388;-67
2023/09/23 10:58:00;;;;;;;5.88;4.68;;;;;;;;;;4972549;28;20031;-67
2023/09/23 11:00:28;;;;;;;8.82;4.45;;;;;;;;;;4973380;28;20154;-67
2023/09/23 11:02:54;;;;;;;7.00;4.85;;;;;;;;;;4972784;28;20436;-67
2023/09/23 11:05:22;;;;;;;7.55;5.07;;;;;;;;;;4973343;28;20053;-68
2023/09/23 11:07:48;;;;;;;7.30;4.30;;;;;;;;;;4991869;28;20480;-67
2023/09/23 11:10:14;;;;;;;6.55;4.07;;;;;;;;;;4992474;28;20122;-67
2023/09/23 11:12:46;;;;;;;6.22;3.72;;;;;;;;;;4991796;28;20047;-67
2023/09/23 11:15:13;;;;;;;6.13;3.65;;;;;;;;;;4992659;28;20044;-67
2023/09/23 11:17:40;;;;;;;5.15;3.50;;;;;;;;;;4992021;28;20085;-67
2023/09/23 11:20:09;;;;;;;6.78;3.67;;;;;;;;;;4991844;28;20081;-67
2023/09/23 11:22:37;;;;;;;6.35;3.42;;;;;;;;;;4992029;28;20130;-67
2023/09/23 11:25:07;;;;;;;5.78;3.20;;;;;;;;;;4992456;28;20042;-67
2023/09/23 11:27:35;;;;;;;5.82;3.70;;;;;;;;;;4992284;28;20042;-67
2023/09/23 11:30:01;;;;;;;7.55;4.70;;;;;;;;;;4992087;28;20061;-67
2023/09/23 11:32:27;;;;;;;4.25;3.85;;;;;;;;;;4991979;28;20043;-67
2023/09/23 11:34:54;;;;;;;7.63;4.35;;;;;;;;;;4992340;28;20500;-67
2023/09/23 11:37:22;;;;;;;4.75;4.13;;;;;;;;;;4998433;28;20034;-67
2023/09/23 11:39:48;;;;;;;9.05;4.97;;;;;;;;;;4972305;28;20046;-67
2023/09/23 11:42:14;;;;;;;7.97;5.10;;;;;;;;;;4973025;28;20109;-67
2023/09/23 11:44:39;;;;;;;8.73;5.32;;;;;;;;;;4972740;28;20054;-67
2023/09/23 11:47:05;;;;;;;8.02;4.75;;;;;;;;;;4975793;28;20082;-67
2023/09/23 11:49:32;;;;;;;7.85;4.72;;;;;;;;;;4976278;28;20042;-67
2023/09/23 11:51:59;;;;;;;8.43;5.20;;;;;;;;;;4975912;28;20049;-67
2023/09/23 11:54:25;;;;;;;5.82;4.72;;;;;;;;;;4975566;28;20046;-67
2023/09/23 11:56:51;;;;;;;7.75;4.50;;;;;;;;;;4992652;28;20035;-67
2023/09/23 11:59:20;;;;;;;6.30;3.95;;;;;;;;;;4975953;28;20038;-67
2023/09/23 12:01:47;;;;;;;8.38;3.97;;;;;;;;;;4975927;28;20125;-67
2023/09/23 12:04:13;;;;;;;5.68;3.75;;;;;;;;;;4975993;28;20433;-67
2023/09/23 12:06:40;;;;;;;6.68;3.83;;;;;;;;;;4975828;28;20070;-67
2023/09/23 12:09:09;;;;;;;5.07;3.10;;;;;;;;;;4976280;28;20054;-67
2023/09/23 12:11:36;;;;;;;5.07;2.80;;;;;;;;;;4975581;28;20050;-68
2023/09/23 12:14:02;;;;;;;6.28;3.10;;;;;;;;;;4975772;28;20073;-68
2023/09/23 12:16:29;;;;;;;2.95;2.35;;;;;;;;;;4984085;28;20114;-68
2023/09/23 12:18:55;;;;;;;5.43;2.70;;;;;;;;;;4995316;28;20038;-68
2023/09/23 12:21:21;;;;;;;3.97;2.42;;;;;;;;;;4995146;28;20045;-68
2023/09/23 12:23:47;;;;;;;4.45;2.53;;;;;;;;;;4995294;28;20054;-68
2023/09/23 12:26:15;;;;;;;4.93;2.40;;;;;;;;;;4994756;28;20053;-68
2023/09/23 12:28:41;;;;;;;3.92;2.40;;;;;;;;;;4994612;28;20062;-68
2023/09/23 12:31:07;;;;;;;4.55;2.20;;;;;;;;;;4995289;28;20578;-68
2023/09/23 12:33:33;;;;;;;5.13;2.35;;;;;;;;;;4994860;28;20053;-68
2023/09/23 12:35:59;;;;;;;3.20;1.50;;;;;;;;;;4993307;28;20420;-68
2023/09/23 12:38:25;;;;;;;4.63;2.15;;;;;;;;;;4994590;28;20065;-68
2023/09/23 12:40:51;;;;;;;4.75;2.30;;;;;;;;;;4994967;28;20058;-68
2023/09/23 12:43:17;;;;;;;4.07;2.03;;;;;;;;;;4994679;28;20044;-68
2023/09/23 12:45:44;;;;;;;2.55;2.35;;;;;;;;;;4995050;28;20121;-68
2023/09/23 12:48:10;;;;;;;3.63;1.77;;;;;;;;;;4994055;28;20521;-68
2023/09/23 12:50:36;;;;;;;4.75;2.20;;;;;;;;;;4994798;28;20035;-68
2023/09/23 12:53:03;;;;;;;3.88;2.40;;;;;;;;;;4993931;28;20045;-68
2023/09/23 12:55:29;;;;;;;3.97;2.67;;;;;;;;;;4992674;28;20552;-68
2023/09/23 12:57:55;;;;;;;4.03;2.60;;;;;;;;;;4993827;28;20034;-68
2023/09/23 13:00:21;;;;;;;3.65;2.83;;;;;;;;;;4994310;28;20042;-68
2023/09/23 13:02:47;;;;;;;5.78;2.65;;;;;;;;;;4994473;28;20045;-68
2023/09/23 13:05:17;;;;;;;5.57;2.45;;;;;;;;;;4994456;28;20492;-68
2023/09/23 13:07:43;;;;;;;4.03;2.53;;;;;;;;;;4994358;28;20085;-68
2023/09/23 13:10:14;;;;;;;4.38;2.20;;;;;;;;;;4993856;28;20039;-68
2023/09/23 13:12:40;;;;;;;4.80;2.35;;;;;;;;;;4994594;28;20052;-68
2023/09/23 13:15:06;;;;;;;3.50;1.63;;;;;;;;;;4994385;28;20038;-68
2023/09/23 13:17:32;;;;;;;5.45;1.88;;;;;;;;;;4993202;28;20093;-68
2023/09/23 13:19:59;;;;;;;3.13;1.20;;;;;;;;;;4993880;28;20035;-68
2023/09/23 13:22:25;;;;;;;1.48;1.20;;;;;;;;;;4994437;28;20065;-68
2023/09/23 13:24:52;;;;;;;4.88;1.60;;;;;;;;;;4994157;28;20042;-68
2023/09/23 13:27:18;;;;;;;3.33;1.48;;;;;;;;;;4993574;28;20113;-68
2023/09/23 13:29:44;;;;;;;1.85;1.45;;;;;;;;;;4993690;28;20056;-69
2023/09/23 13:32:10;;;;;;;1.40;0.70;;;;;;;;;;4993968;28;20130;-69
2023/09/23 13:34:36;;;;;;;0.85;0.70;;;;;;;;;;4993041;28;20536;-69
2023/09/23 13:37:02;;;;;;;2.20;1.10;;;;;;;;;;4993791;28;20037;-69
2023/09/23 13:39:28;;;;;;;2.17;0.90;;;;;;;;;;4993855;28;20031;-69
2023/09/23 13:41:55;;;;;;;3.22;0.90;;;;;;;;;;4993504;28;20403;-69
2023/09/23 13:44:24;;;;;;;1.52;1.30;;;;;;;;;;4993449;28;20093;-69
2023/09/23 13:46:50;;;;;;;3.65;1.08;;;;;;;;;;4993745;28;20415;-69
2023/09/23 13:49:16;;;;;;;2.80;1.40;;;;;;;;;;4993482;28;20076;-69
2023/09/23 13:51:42;;;;;;;1.45;1.17;;;;;;;;;;4993135;28;20038;-69
2023/09/23 13:54:08;;;;;;;1.33;1.10;;;;;;;;;;4993226;28;20404;-69
2023/09/23 13:56:34;;;;;;;2.00;1.30;;;;;;;;;;4993333;28;20100;-69
2023/09/23 13:59:00;;;;;;;1.65;1.10;;;;;;;;;;4992820;28;20034;-69
2023/09/23 14:01:27;;;;;;;3.05;1.08;;;;;;;;;;4993579;28;20046;-69
2023/09/23 14:03:53;;;;;;;1.95;1.05;;;;;;;;;;4993631;28;20416;-69
2023/09/23 14:06:19;;;;;;;1.85;1.00;;;;;;;;;;4993070;28;20034;-69
2023/09/23 14:08:44;;;;;;;3.90;1.23;;;;;;;;;;4992522;28;20116;-69
2023/09/23 14:11:10;;;;;;;2.95;1.00;;;;;;;;;;4992878;28;20500;-69
2023/09/23 14:13:37;;;;;;;3.15;1.30;;;;;;;;;;4993092;28;20126;-69
2023/09/23 14:16:03;;;;;;;2.53;1.10;;;;;;;;;;4992922;28;20105;-69
2023/09/23 14:18:29;;;;;;;2.63;1.10;;;;;;;;;;4993132;28;20041;-69
2023/09/23 14:20:55;;;;;;;1.90;1.00;;;;;;;;;;4992774;28;20101;-68
2023/09/23 14:23:21;;;;;;;2.40;1.00;;;;;;;;;;4992911;28;20058;-68
2023/09/23 14:25:47;;;;;;;3.72;1.08;;;;;;;;;;4992665;28;20050;-68
2023/09/23 14:28:13;;;;;;;2.08;1.00;;;;;;;;;;4992742;28;20034;-68
2023/09/23 14:30:39;;;;;;;2.20;0.90;;;;;;;;;;4993128;28;20085;-68
2023/09/23 14:33:05;;;;;;;5.32;1.00;;;;;;;;;;4992560;28;20070;-68